createdAt,value
2022-10-16T00:01:07.378Z,100313.31
2022-10-16T00:03:35.509Z,100308.03
2022-10-16T00:06:03.898Z,100300.13
2022-10-16T00:08:32.524Z,100288.72
2022-10-16T00:11:05.125Z,100286.94
2022-10-16T00:13:33.948Z,100295.75
2022-10-16T00:16:03.811Z,100287.84
2022-10-16T00:18:32.444Z,100294.84
2022-10-16T00:21:05.164Z,100290.47
2022-10-16T00:23:33.533Z,100293.97
2022-10-16T00:26:03.088Z,100285.19
2022-10-16T00:28:31.672Z,100280.81
2022-10-16T00:30:59.603Z,100282.56
2022-10-16T00:33:28.781Z,100282.53
2022-10-16T00:35:59.542Z,100279.03
2022-10-16T00:38:27.492Z,100275.53
2022-10-16T00:40:55.413Z,100249.88
2022-10-16T00:43:41.813Z,100252.59
2022-10-16T00:46:16.867Z,100271.91
2022-10-16T00:48:52.864Z,100273.66
2022-10-16T00:51:24.051Z,100271.88
2022-10-16T00:53:52.705Z,100269.25
2022-10-16T00:56:20.994Z,100272.78
2022-10-16T00:58:49.020Z,100266.59
2022-10-16T01:01:17.136Z,100235.72
2022-10-16T01:03:46.621Z,100259.47
2022-10-16T01:09:13.508Z,100267.41
2022-10-16T01:11:51.183Z,100258.66
2022-10-16T01:14:29.109Z,100259.50
2022-10-16T01:17:02.463Z,100262.13
2022-10-16T01:19:46.545Z,100262.09
2022-10-16T01:22:15.829Z,100277.84
2022-10-16T01:27:27.569Z,100258.50
2022-10-16T01:29:58.845Z,100256.75
2022-10-16T01:32:34.476Z,100282.19
2022-10-16T01:35:07.344Z,100275.19
2022-10-16T01:37:38.962Z,100277.81
2022-10-16T01:40:11.592Z,100284.88
2022-10-16T01:42:44.959Z,100277.88
2022-10-16T01:45:19.209Z,100279.66
2022-10-16T01:47:48.600Z,100270.78
2022-10-16T01:50:19.005Z,100284.88
2022-10-16T01:52:51.886Z,100284.06
2022-10-16T01:55:26.788Z,100295.47
2022-10-16T01:57:57.270Z,100263.75
2022-10-16T02:00:26.542Z,100233.81
2022-10-16T02:02:57.288Z,100281.41
2022-10-16T02:05:30.559Z,100268.31
2022-10-16T02:08:00.445Z,100261.28
2022-10-16T02:10:32.770Z,100263.03
2022-10-16T02:13:07.668Z,100264.81
2022-10-16T02:15:35.782Z,100267.44
2022-10-16T02:18:04.127Z,100271.88
2022-10-16T02:20:38.821Z,100261.31
2022-10-16T02:23:11.088Z,100267.50
2022-10-16T02:25:43.925Z,100268.38
2022-10-16T02:28:20.052Z,100272.78
2022-10-16T02:30:53.645Z,100267.53
2022-10-16T02:33:24.273Z,100272.78
2022-10-16T02:35:53.592Z,100263.06
2022-10-16T02:38:23.512Z,100275.41
2022-10-16T02:40:51.698Z,100265.63
2022-10-16T02:43:21.500Z,100282.41
2022-10-16T02:45:49.611Z,100284.16
2022-10-16T02:48:17.485Z,100275.41
2022-10-16T02:50:45.342Z,100259.63
2022-10-16T02:53:13.589Z,100262.22
2022-10-16T02:55:41.449Z,100243.84
2022-10-16T02:58:09.316Z,100223.59
2022-10-16T03:00:38.877Z,100233.31
2022-10-16T03:03:06.733Z,100195.34
2022-10-16T03:05:34.806Z,100242.09
2022-10-16T03:08:02.992Z,100235.97
2022-10-16T03:10:30.813Z,100235.94
2022-10-16T03:12:58.688Z,100233.31
2022-10-16T03:15:27.028Z,100223.69
2022-10-16T03:17:56.437Z,100225.41
2022-10-16T03:20:24.461Z,100217.47
2022-10-16T03:22:52.523Z,100222.72
2022-10-16T03:25:20.428Z,100213.00
2022-10-16T03:27:48.368Z,100223.53
2022-10-16T03:30:16.595Z,100220.88
2022-10-16T03:32:45.856Z,100225.22
2022-10-16T03:35:15.193Z,100234.84
2022-10-16T03:37:43.097Z,100238.31
2022-10-16T03:40:11.738Z,100227.81
2022-10-16T03:42:39.572Z,100216.38
2022-10-16T03:45:08.401Z,100214.59
2022-10-16T03:47:36.333Z,100219.81
2022-10-16T03:50:05.084Z,100213.66
2022-10-16T03:52:34.530Z,100211.00
2022-10-16T03:55:02.628Z,100207.44
2022-10-16T03:57:30.543Z,100207.41
2022-10-16T03:59:58.423Z,100210.06
2022-10-16T04:02:26.371Z,100201.34
2022-10-16T04:04:54.196Z,100214.47
2022-10-16T04:07:22.240Z,100209.22
2022-10-16T04:09:53.113Z,100193.41
2022-10-16T04:12:20.997Z,100196.03
2022-10-16T04:14:49.124Z,100191.63
2022-10-16T04:17:17.168Z,100211.84
2022-10-16T04:19:44.986Z,100211.81
2022-10-16T04:22:12.985Z,100207.34
2022-10-16T04:24:41.109Z,100213.53
2022-10-16T04:27:10.469Z,100196.75
2022-10-16T04:29:38.472Z,100215.28
2022-10-16T04:32:06.729Z,100237.19
2022-10-16T04:34:34.563Z,100238.00
2022-10-16T04:37:02.593Z,100227.50
2022-10-16T04:39:31.912Z,100229.25
2022-10-16T04:41:59.757Z,100224.00
2022-10-16T04:44:29.022Z,100204.56
2022-10-16T04:46:57.017Z,100209.81
2022-10-16T04:49:24.901Z,100208.81
2022-10-16T04:51:53.065Z,100207.97
2022-10-16T04:54:21.008Z,100228.09
2022-10-16T04:56:51.176Z,100204.28
2022-10-16T04:59:20.113Z,100231.53
2022-10-16T05:01:49.733Z,100215.66
2022-10-16T05:04:17.578Z,100221.84
2022-10-16T05:06:45.743Z,100216.59
2022-10-16T05:09:13.667Z,100219.13
2022-10-16T05:11:41.618Z,100241.09
2022-10-16T05:16:42.607Z,100232.25
2022-10-16T05:19:28.396Z,100237.50
2022-10-16T05:21:57.359Z,100212.84
2022-10-16T05:24:25.433Z,100245.31
2022-10-16T05:26:53.517Z,100217.22
2022-10-16T05:29:21.953Z,100230.44
2022-10-16T05:31:53.047Z,100220.81
2022-10-16T05:34:22.962Z,100212.91
2022-10-16T05:36:51.151Z,100218.22
2022-10-16T05:39:19.324Z,100228.75
2022-10-16T05:41:47.534Z,100222.59
2022-10-16T05:44:15.983Z,100232.28
2022-10-16T05:46:43.883Z,100227.03
2022-10-16T05:49:11.829Z,100210.34
2022-10-16T05:51:41.110Z,100225.31
2022-10-16T05:54:09.238Z,100228.84
2022-10-16T05:56:37.294Z,100227.94
2022-10-16T05:59:05.892Z,100236.75
2022-10-16T06:01:34.254Z,100234.97
2022-10-16T06:04:02.372Z,100245.53
2022-10-16T06:06:30.707Z,100247.28
2022-10-16T06:09:00.861Z,100249.03
2022-10-16T06:11:31.940Z,100251.69
2022-10-16T06:14:02.977Z,100239.44
2022-10-16T06:16:31.253Z,100245.63
2022-10-16T06:19:00.327Z,100220.03
2022-10-16T06:21:29.736Z,100243.00
2022-10-16T06:23:59.809Z,100252.78
2022-10-16T06:26:29.029Z,100251.94
2022-10-16T06:28:57.916Z,100240.44
2022-10-16T06:31:28.559Z,100265.19
2022-10-16T06:33:57.225Z,100257.34
2022-10-16T06:36:26.145Z,100268.78
2022-10-16T06:38:54.593Z,100267.09
2022-10-16T06:41:24.985Z,100260.09
2022-10-16T06:43:53.702Z,100268.09
2022-10-16T06:46:23.926Z,100265.41
2022-10-16T06:48:52.014Z,100283.06
2022-10-16T06:51:21.104Z,100274.31
2022-10-16T06:54:06.380Z,100274.34
2022-10-16T06:56:36.791Z,100294.56
2022-10-16T06:59:05.956Z,100283.22
2022-10-16T07:01:34.981Z,100287.63
2022-10-16T07:04:03.470Z,100285.91
2022-10-16T07:06:34.071Z,100287.69
2022-10-16T07:09:04.838Z,100284.19
2022-10-16T07:11:32.829Z,100288.56
2022-10-16T07:14:02.081Z,100285.97
2022-10-16T07:16:31.382Z,100293.00
2022-10-16T07:19:01.647Z,100291.25
2022-10-16T07:21:31.301Z,100289.53
2022-10-16T07:24:02.445Z,100268.38
2022-10-16T07:26:32.779Z,100290.41
2022-10-16T07:29:02.886Z,100287.75
2022-10-16T07:31:31.167Z,100295.66
2022-10-16T07:34:01.298Z,100292.19
2022-10-16T07:36:29.324Z,100295.72
2022-10-16T07:38:59.840Z,100294.84
2022-10-16T07:41:29.174Z,100298.34
2022-10-16T07:43:58.454Z,100272.81
2022-10-16T07:46:29.001Z,100299.28
2022-10-16T07:48:57.226Z,100295.75
2022-10-16T07:51:26.881Z,100279.06
2022-10-16T07:53:55.349Z,100290.50
2022-10-16T07:56:23.464Z,100251.66
2022-10-16T07:58:52.574Z,100294.81
2022-10-16T08:01:21.247Z,100219.03
2022-10-16T08:03:52.291Z,100300.09
2022-10-16T08:06:27.591Z,100263.94
2022-10-16T08:08:56.444Z,100304.50
2022-10-16T08:11:24.721Z,100298.34
2022-10-16T08:13:52.640Z,100303.59
2022-10-16T08:16:20.589Z,100275.41
2022-10-16T08:18:52.632Z,100293.97
2022-10-16T08:21:22.305Z,100300.97
2022-10-16T08:23:54.808Z,100303.56
2022-10-16T08:26:27.237Z,100258.56
2022-10-16T08:28:56.009Z,100314.13
2022-10-16T08:31:24.396Z,100322.00
2022-10-16T08:33:53.875Z,100311.50
2022-10-16T08:36:21.856Z,100318.53
2022-10-16T08:38:51.536Z,100303.63
2022-10-16T08:41:30.943Z,100307.13
2022-10-16T08:44:22.595Z,100281.56
2022-10-16T08:47:01.784Z,100325.56
2022-10-16T08:49:34.154Z,100327.34
2022-10-16T08:52:02.363Z,100303.59
2022-10-16T08:54:34.955Z,100322.09
2022-10-16T08:57:11.413Z,100316.00
2022-10-16T08:59:39.290Z,100317.75
2022-10-16T09:02:26.024Z,100330.03
2022-10-16T09:05:13.555Z,100288.59
2022-10-16T09:07:52.104Z,100320.31
2022-10-16T09:10:36.570Z,100323.91
2022-10-16T09:13:15.961Z,100311.69
2022-10-16T09:15:52.188Z,100326.69
2022-10-16T09:18:30.141Z,100324.94
2022-10-16T09:21:11.322Z,100324.09
2022-10-16T09:23:39.862Z,100324.16
2022-10-16T09:26:13.078Z,100321.63
2022-10-16T09:28:41.226Z,100322.53
2022-10-16T09:31:17.410Z,100321.69
2022-10-16T09:33:47.593Z,100310.28
2022-10-16T09:36:17.393Z,100291.81
2022-10-16T09:38:45.224Z,100315.63
2022-10-16T09:41:19.634Z,100323.56
2022-10-16T09:43:55.730Z,100313.91
2022-10-16T09:46:28.241Z,100320.06
2022-10-16T09:48:58.566Z,100312.16
2022-10-16T09:51:30.191Z,100322.66
2022-10-16T09:54:01.041Z,100318.31
2022-10-16T09:56:30.770Z,100260.16
2022-10-16T09:59:00.209Z,100304.31
2022-10-16T10:01:33.684Z,100288.50
2022-10-16T10:04:04.012Z,100315.97
2022-10-16T10:06:39.025Z,100310.88
2022-10-16T10:09:16.200Z,100326.78
2022-10-16T10:11:47.496Z,100321.50
2022-10-16T10:14:21.196Z,100318.88
2022-10-16T10:16:50.203Z,100296.88
2022-10-16T10:19:19.473Z,100267.78
2022-10-16T10:21:49.764Z,100321.44
2022-10-16T10:24:19.858Z,100322.19
2022-10-16T10:26:54.850Z,100343.25
2022-10-16T10:29:43.993Z,100320.34
2022-10-16T10:32:27.512Z,100315.91
2022-10-16T10:35:09.614Z,100322.97
2022-10-16T10:38:01.382Z,100323.88
2022-10-16T10:40:39.527Z,100332.66
2022-10-16T10:43:18.283Z,100316.75
2022-10-16T10:45:49.416Z,100321.16
2022-10-16T10:48:33.310Z,100319.44
2022-10-16T10:51:06.550Z,100322.09
2022-10-16T10:53:45.737Z,100315.97
2022-10-16T10:56:25.804Z,100305.59
2022-10-16T10:59:10.099Z,100301.25
2022-10-16T11:01:48.366Z,100316.25
2022-10-16T11:04:53.351Z,100301.22
2022-10-16T11:07:26.108Z,100301.16
2022-10-16T11:09:59.961Z,100294.88
2022-10-16T11:12:32.136Z,100265.66
2022-10-16T11:15:06.584Z,100298.31
2022-10-16T11:17:40.618Z,100300.28
2022-10-16T11:20:16.944Z,100266.88
2022-10-16T11:22:49.738Z,100287.16
2022-10-16T11:25:24.455Z,100295.09
2022-10-16T11:27:56.750Z,100285.41
2022-10-16T11:30:27.477Z,100280.13
2022-10-16T11:33:06.843Z,100284.53
2022-10-16T11:35:42.235Z,100259.88
2022-10-16T11:38:17.578Z,100278.38
2022-10-16T11:40:52.463Z,100281.00
2022-10-16T11:43:25.329Z,100273.97
2022-10-16T11:45:56.259Z,100273.09
2022-10-16T11:48:32.537Z,100280.13
2022-10-16T11:51:07.495Z,100266.91
2022-10-16T11:53:47.437Z,100266.91
2022-10-16T11:56:21.117Z,100273.03
2022-10-16T11:58:59.252Z,100268.63
2022-10-16T12:01:33.931Z,100260.72
2022-10-16T12:04:16.691Z,100252.81
2022-10-16T12:06:50.514Z,100230.78
2022-10-16T12:09:23.961Z,100242.25
2022-10-16T12:11:53.511Z,100231.72
2022-10-16T12:14:57.198Z,100232.59
2022-10-16T12:17:28.815Z,100228.19
2022-10-16T12:20:01.737Z,100233.47
2022-10-16T12:22:31.495Z,100233.47
2022-10-16T12:24:59.747Z,100177.16
2022-10-16T12:27:31.455Z,100218.53
2022-10-16T12:30:01.368Z,100207.06
2022-10-16T12:32:49.179Z,100209.69
2022-10-16T12:35:23.074Z,100208.78
2022-10-16T12:37:51.973Z,100206.16
2022-10-16T12:40:29.249Z,100206.19
2022-10-16T12:42:58.788Z,100174.50
2022-10-16T12:45:33.253Z,100161.31
2022-10-16T12:48:02.410Z,100067.19
2022-10-16T12:50:35.025Z,100188.59
2022-10-16T12:53:04.825Z,100192.13
2022-10-16T12:55:44.913Z,100182.44
2022-10-16T12:58:34.062Z,100149.88
2022-10-16T13:01:13.305Z,100196.50
2022-10-16T13:04:00.012Z,100178.03
2022-10-16T13:06:37.100Z,100171.88
2022-10-16T13:09:31.184Z,100075.94
2022-10-16T13:12:13.635Z,100164.84
2022-10-16T13:15:02.311Z,100167.47
2022-10-16T13:17:39.390Z,100156.91
2022-10-16T13:20:19.565Z,100120.84
2022-10-16T13:22:57.523Z,100147.19
2022-10-16T13:25:35.108Z,100135.41
2022-10-16T13:28:04.082Z,100133.31
2022-10-16T13:30:39.198Z,100118.03
2022-10-16T13:33:13.694Z,100111.03
2022-10-16T13:35:50.707Z,100121.25
2022-10-16T13:38:20.993Z,100117.47
2022-10-16T13:40:57.387Z,100121.81
2022-10-16T13:43:30.187Z,100116.56
2022-10-16T13:46:01.350Z,100079.88
2022-10-16T13:48:29.296Z,100102.53
2022-10-16T13:51:09.278Z,100087.81
2022-10-16T13:53:37.936Z,100094.31
2022-10-16T13:56:08.481Z,100093.59
2022-10-16T13:58:36.509Z,100098.25
2022-10-16T14:01:07.751Z,100099.34
2022-10-16T14:03:37.485Z,100091.59
2022-10-16T14:06:10.077Z,100103.09
2022-10-16T14:08:38.054Z,100096.00
2022-10-16T14:11:06.169Z,100117.91
2022-10-16T14:13:38.654Z,100104.63
2022-10-16T14:16:12.966Z,100111.78
2022-10-16T14:18:42.311Z,100082.03
2022-10-16T14:21:16.576Z,100130.47
2022-10-16T14:23:45.147Z,100128.75
2022-10-16T14:26:18.967Z,100093.59
2022-10-16T14:28:48.698Z,100112.06
2022-10-16T14:31:31.875Z,100114.72
2022-10-16T14:34:00.241Z,100134.94
2022-10-16T14:36:29.832Z,100133.16
2022-10-16T14:39:03.278Z,100114.66
2022-10-16T14:41:33.062Z,100126.09
2022-10-16T14:44:05.049Z,100133.09
2022-10-16T14:46:38.082Z,100126.94
2022-10-16T14:49:19.644Z,100132.19
2022-10-16T14:51:49.005Z,100125.16
2022-10-16T14:54:18.942Z,100121.66
2022-10-16T14:56:50.823Z,100107.56
2022-10-16T14:59:25.573Z,100103.19
2022-10-16T15:01:55.227Z,100101.41
2022-10-16T15:04:23.039Z,100065.34
2022-10-16T15:06:51.097Z,100075.03
2022-10-16T15:09:19.282Z,100088.22
2022-10-16T15:11:47.633Z,100099.63
2022-10-16T15:16:48.535Z,100110.16
2022-10-16T15:19:17.709Z,100107.50
2022-10-16T15:21:45.649Z,100119.75
2022-10-16T15:24:18.042Z,100146.91
2022-10-16T15:26:49.835Z,100195.69
2022-10-16T15:29:18.041Z,100178.53
2022-10-16T15:31:48.440Z,100170.41
2022-10-16T15:34:19.486Z,100186.13
2022-10-16T15:36:47.596Z,100177.72
2022-10-16T15:39:17.378Z,100187.03
2022-10-16T15:41:49.054Z,100187.63
2022-10-16T15:44:16.995Z,100187.66
2022-10-16T15:46:44.997Z,100190.22
2022-10-16T15:49:14.061Z,100196.31
2022-10-16T15:51:44.146Z,100076.97
2022-10-16T15:54:12.372Z,100212.59
2022-10-16T15:56:40.404Z,100206.22
2022-10-16T15:59:09.028Z,100203.56
2022-10-16T16:01:37.716Z,100188.69
2022-10-16T16:04:11.379Z,100197.38
2022-10-16T16:06:56.612Z,100173.53
2022-10-16T16:09:24.686Z,100179.81
2022-10-16T16:11:53.511Z,100200.84
2022-10-16T16:14:21.607Z,100197.28
2022-10-16T16:16:49.792Z,100198.06
2022-10-16T16:19:21.888Z,100195.34
2022-10-16T16:21:50.504Z,100193.44
2022-10-16T16:24:20.410Z,100188.09
2022-10-16T16:26:48.278Z,100185.31
2022-10-16T16:29:17.857Z,100141.41
2022-10-16T16:31:48.033Z,100158.19
2022-10-16T16:34:16.124Z,100075.34
2022-10-16T16:36:44.277Z,100103.75
2022-10-16T16:39:12.585Z,99931.13
2022-10-16T16:41:41.971Z,100092.28
2022-10-16T16:44:13.237Z,100102.69
2022-10-16T16:46:41.562Z,100082.31
2022-10-16T16:49:09.429Z,100126.34
2022-10-16T16:51:39.857Z,100152.66
2022-10-16T16:54:09.279Z,100158.81
2022-10-16T16:56:38.009Z,100157.06
2022-10-16T16:59:07.624Z,100152.75
2022-10-16T17:01:35.987Z,100099.06
2022-10-16T17:04:04.465Z,100147.56
2022-10-16T17:06:32.584Z,100130.81
2022-10-16T17:09:03.596Z,100136.31
2022-10-16T17:11:32.131Z,100147.47
2022-10-16T17:14:01.070Z,100141.56
2022-10-16T17:16:32.420Z,100127.50
2022-10-16T17:19:02.495Z,100141.59
2022-10-16T17:21:32.964Z,100175.03
2022-10-16T17:24:01.744Z,100168.97
2022-10-16T17:26:30.085Z,100173.47
2022-10-16T17:29:00.578Z,100168.06
2022-10-16T17:31:31.637Z,100113.25
2022-10-16T17:33:59.796Z,100158.34
2022-10-16T17:36:29.703Z,100182.94
2022-10-16T17:39:00.492Z,100181.19
2022-10-16T17:41:28.724Z,100152.72
2022-10-16T17:43:56.611Z,100190.59
2022-10-16T17:46:26.062Z,100186.09
2022-10-16T17:48:56.799Z,100177.09
2022-10-16T17:51:26.872Z,100178.75
2022-10-16T17:53:57.169Z,100197.16
2022-10-16T17:56:26.390Z,100207.59
2022-10-16T17:58:55.664Z,100202.09
2022-10-16T18:01:26.197Z,100224.00
2022-10-16T18:03:57.581Z,100216.16
2022-10-16T18:06:25.688Z,100238.88
2022-10-16T18:08:54.288Z,100230.09
2022-10-16T18:11:23.629Z,100229.97
2022-10-16T18:13:54.195Z,100166.47
2022-10-16T18:16:22.698Z,100211.53
2022-10-16T18:18:51.173Z,100231.72
2022-10-16T18:21:21.342Z,100236.91
2022-10-16T18:23:52.206Z,100231.38
2022-10-16T18:26:21.651Z,100221.63
2022-10-16T18:28:52.752Z,100272.72
2022-10-16T18:31:21.273Z,100226.84
2022-10-16T18:33:51.123Z,100264.88
2022-10-16T18:36:22.375Z,100280.63
2022-10-16T18:38:50.991Z,100244.59
2022-10-16T18:41:19.717Z,100261.56
2022-10-16T18:43:47.718Z,100272.09
2022-10-16T18:46:18.161Z,100275.66
2022-10-16T18:48:46.968Z,100273.94
2022-10-16T18:51:19.020Z,100286.28
2022-10-16T18:53:50.392Z,100296.00
2022-10-16T18:56:20.661Z,100274.28
2022-10-16T18:58:49.424Z,100254.75
2022-10-16T19:01:20.980Z,100284.00
2022-10-16T19:03:49.536Z,100283.13
2022-10-16T19:06:18.198Z,100284.00
2022-10-16T19:08:46.345Z,100297.06
2022-10-16T19:11:16.953Z,100302.16
2022-10-16T19:13:45.887Z,100180.06
2022-10-16T19:16:20.492Z,100311.53
2022-10-16T19:18:49.329Z,100251.34
2022-10-16T19:21:17.797Z,100298.41
2022-10-16T19:23:46.154Z,100306.13
2022-10-16T19:26:17.749Z,100300.88
2022-10-16T19:28:46.353Z,100238.84
2022-10-16T19:31:16.224Z,100317.31
2022-10-16T19:33:44.399Z,100318.09
2022-10-16T19:36:14.506Z,100318.03
2022-10-16T19:38:42.908Z,100329.34
2022-10-16T19:41:12.675Z,100319.84
2022-10-16T19:43:42.327Z,100317.25
2022-10-16T19:46:12.616Z,100328.69
2022-10-16T19:48:41.265Z,100343.56
2022-10-16T19:51:12.885Z,100338.34
2022-10-16T19:53:40.758Z,100359.28
2022-10-16T19:56:15.437Z,100347.94
2022-10-16T19:58:46.014Z,100324.16
2022-10-16T20:01:14.918Z,100341.81
2022-10-16T20:03:44.458Z,100299.31
2022-10-16T20:06:12.465Z,100344.47
2022-10-16T20:08:42.517Z,100342.66
2022-10-16T20:11:14.032Z,100289.56
2022-10-16T20:13:42.523Z,100352.13
2022-10-16T20:16:13.960Z,100341.69
2022-10-16T20:18:42.356Z,100353.94
2022-10-16T20:21:11.139Z,100358.31
2022-10-16T20:23:39.271Z,100358.28
2022-10-16T20:26:07.725Z,100358.34
2022-10-16T20:28:35.734Z,100366.19
2022-10-16T20:31:08.466Z,100371.47
2022-10-16T20:33:37.848Z,100369.66
2022-10-16T20:36:11.373Z,100370.50
2022-10-16T20:38:39.527Z,100380.94
2022-10-16T20:41:08.673Z,100367.31
2022-10-16T20:43:37.263Z,100383.09
2022-10-16T20:46:08.863Z,100374.25
2022-10-16T20:48:41.188Z,100380.38
2022-10-16T20:51:13.532Z,100388.13
2022-10-16T20:53:41.464Z,100305.78
2022-10-16T20:56:10.157Z,100344.47
2022-10-16T20:58:38.085Z,100388.16
2022-10-16T21:01:07.410Z,100395.13
2022-10-16T21:03:36.624Z,100416.34
2022-10-16T21:06:08.097Z,100416.50
2022-10-16T21:08:37.410Z,100419.06
2022-10-16T21:11:11.973Z,100416.50
2022-10-16T21:13:40.093Z,100430.56
2022-10-16T21:16:08.413Z,100425.31
2022-10-16T21:18:38.731Z,100431.41
2022-10-16T21:21:11.059Z,100446.25
2022-10-16T21:23:39.337Z,100432.31
2022-10-16T21:26:08.506Z,100430.47
2022-10-16T21:28:36.510Z,100398.53
2022-10-16T21:31:12.259Z,100392.38
2022-10-16T21:33:40.249Z,100419.22
2022-10-16T21:36:15.804Z,100421.84
2022-10-16T21:38:43.864Z,100434.16
2022-10-16T21:41:16.650Z,100435.94
2022-10-16T21:43:44.848Z,100444.63
2022-10-16T21:46:13.041Z,100440.13
2022-10-16T21:48:42.770Z,100460.63
2022-10-16T21:51:11.597Z,100420.81
2022-10-16T21:53:41.650Z,100464.97
2022-10-16T21:56:14.830Z,100487.06
2022-10-16T21:58:42.942Z,100487.13
2022-10-16T22:01:13.287Z,100510.72
2022-10-16T22:03:41.439Z,100500.31
2022-10-16T22:06:11.425Z,100510.78
2022-10-16T22:08:42.398Z,100484.19
2022-10-16T22:11:12.166Z,100516.00
2022-10-16T22:13:40.772Z,100510.72
2022-10-16T22:16:09.610Z,100411.41
2022-10-16T22:18:38.402Z,100511.53
2022-10-16T22:21:07.980Z,100513.25
2022-10-16T22:23:36.097Z,100512.28
2022-10-16T22:26:07.841Z,100440.38
2022-10-16T22:28:36.328Z,100415.47
2022-10-16T22:31:06.210Z,100506.69
2022-10-16T22:36:13.464Z,100503.56
2022-10-16T22:38:41.888Z,100531.94
2022-10-16T22:41:12.948Z,100501.88
2022-10-16T22:43:42.884Z,100465.28
2022-10-16T22:46:13.581Z,100533.66
2022-10-16T22:48:42.217Z,100557.25
2022-10-16T22:51:15.712Z,100559.00
2022-10-16T22:53:46.034Z,100552.91
2022-10-16T22:56:16.184Z,100560.59
2022-10-16T22:58:44.718Z,100572.19
2022-10-16T23:01:14.881Z,100568.75
2022-10-16T23:03:43.067Z,100532.13
2022-10-16T23:06:10.961Z,100599.34
2022-10-16T23:08:38.942Z,100591.50
2022-10-16T23:11:08.043Z,100601.91
2022-10-16T23:13:39.415Z,100609.81
2022-10-16T23:16:08.482Z,100605.41
2022-10-16T23:18:36.704Z,100595.28
2022-10-16T23:21:06.780Z,100575.19
2022-10-16T23:23:36.725Z,100621.81
2022-10-16T23:26:05.186Z,100616.56
2022-10-16T23:28:33.375Z,100587.72
2022-10-16T23:31:05.070Z,100621.59
2022-10-16T23:33:33.467Z,100644.22
2022-10-16T23:36:05.026Z,100626.72
2022-10-16T23:38:33.045Z,100636.31
2022-10-16T23:41:01.168Z,100641.50
2022-10-16T23:43:29.654Z,100564.34
2022-10-16T23:45:57.574Z,100588.28
2022-10-16T23:48:26.853Z,100648.47
2022-10-16T23:50:54.838Z,100656.31
2022-10-16T23:53:23.402Z,100586.19
2022-10-16T23:55:51.497Z,100650.28
2022-10-16T23:58:20.006Z,100671.19
